createdAt,value
2019-02-16T00:04:31.336Z,7.00
2019-02-16T00:09:37.592Z,6.90
2019-02-16T00:14:43.809Z,6.70
2019-02-16T00:19:50.020Z,6.60
2019-02-16T00:24:56.231Z,6.50
2019-02-16T00:30:02.450Z,6.40
2019-02-16T00:35:08.731Z,6.60
2019-02-16T00:40:15.049Z,6.60
2019-02-16T00:45:21.336Z,6.50
2019-02-16T00:50:27.554Z,6.50
2019-02-16T00:55:33.809Z,6.50
2019-02-16T01:00:40.042Z,6.60
2019-02-16T01:05:46.294Z,6.60
2019-02-16T01:10:52.497Z,6.50
2019-02-16T01:15:58.666Z,6.30
2019-02-16T01:21:05.593Z,6.20
2019-02-16T01:26:11.900Z,6.10
2019-02-16T01:31:18.155Z,5.80
2019-02-16T01:36:24.474Z,6.00
2019-02-16T01:41:30.831Z,6.00
2019-02-16T01:46:37.124Z,5.90
2019-02-16T01:51:43.436Z,5.80
2019-02-16T01:56:49.712Z,5.70
2019-02-16T02:01:56.020Z,5.50
2019-02-16T02:07:02.824Z,5.40
2019-02-16T02:12:09.195Z,5.20
2019-02-16T02:17:15.525Z,5.10
2019-02-16T02:22:21.808Z,5.00
2019-02-16T02:27:28.196Z,4.90
2019-02-16T02:32:34.482Z,4.80
2019-02-16T02:37:40.793Z,4.70
2019-02-16T02:42:47.098Z,4.70
2019-02-16T02:47:53.365Z,4.70
2019-02-16T02:52:59.768Z,4.60
2019-02-16T02:58:06.233Z,4.60
2019-02-16T03:03:12.513Z,4.50
2019-02-16T03:08:18.991Z,4.50
2019-02-16T03:13:25.273Z,4.40
2019-02-16T03:18:31.614Z,4.40
2019-02-16T03:23:37.871Z,4.30
2019-02-16T03:28:51.406Z,4.30
2019-02-16T03:34:05.935Z,4.20
2019-02-16T03:39:20.971Z,4.20
2019-02-16T03:44:27.276Z,4.10
2019-02-16T03:49:33.585Z,4.10
2019-02-16T03:54:40.058Z,4.10
2019-02-16T03:59:46.500Z,4.00
2019-02-16T04:04:52.815Z,3.90
2019-02-16T04:09:59.195Z,3.80
2019-02-16T04:15:05.535Z,3.70
2019-02-16T04:20:11.734Z,3.70
2019-02-16T04:25:17.950Z,3.50
2019-02-16T04:30:24.224Z,3.50
2019-02-16T04:35:30.392Z,3.50
2019-02-16T04:40:36.740Z,3.40
2019-02-16T04:45:42.929Z,3.30
2019-02-16T04:50:49.400Z,3.40
2019-02-16T04:55:55.611Z,3.30
2019-02-16T05:01:01.868Z,3.20
2019-02-16T05:06:08.160Z,3.30
2019-02-16T05:11:14.334Z,3.20
2019-02-16T05:16:20.538Z,3.10
2019-02-16T05:21:26.708Z,3.10
2019-02-16T05:26:33.003Z,3.00
2019-02-16T05:31:39.228Z,3.00
2019-02-16T05:36:45.513Z,2.90
2019-02-16T05:41:51.684Z,2.90
2019-02-16T05:46:58.036Z,2.70
2019-02-16T05:52:05.236Z,2.60
2019-02-16T05:57:11.553Z,2.80
2019-02-16T06:02:17.810Z,2.90
2019-02-16T06:07:23.984Z,2.80
2019-02-16T06:12:30.203Z,2.70
2019-02-16T06:17:36.376Z,2.70
2019-02-16T06:22:42.585Z,2.60
2019-02-16T06:27:50.420Z,2.50
2019-02-16T06:32:56.713Z,2.30
2019-02-16T06:38:02.980Z,2.30
2019-02-16T06:43:09.223Z,2.50
2019-02-16T06:48:15.498Z,2.40
2019-02-16T06:53:22.705Z,2.40
2019-02-16T06:58:29.014Z,2.40
2019-02-16T07:03:35.221Z,2.40
2019-02-16T07:08:43.974Z,2.40
2019-02-16T07:13:49.738Z,2.30
2019-02-16T07:19:02.840Z,2.30
2019-02-16T07:24:09.240Z,2.30
2019-02-16T07:29:15.613Z,2.20
2019-02-16T07:34:21.894Z,2.30
2019-02-16T07:39:28.149Z,2.30
2019-02-16T07:44:53.326Z,2.30
2019-02-16T07:50:30.403Z,2.40
2019-02-16T07:56:01.499Z,2.50
2019-02-16T08:01:33.987Z,2.60
2019-02-16T08:07:02.939Z,2.70
2019-02-16T08:12:22.182Z,2.80
2019-02-16T08:17:53.106Z,2.90
2019-02-16T08:23:21.219Z,3.70
2019-02-16T08:28:52.611Z,4.10
2019-02-16T08:34:15.840Z,4.40
2019-02-16T08:39:29.730Z,4.50
2019-02-16T08:44:50.156Z,4.90
2019-02-16T08:50:14.003Z,5.50
2019-02-16T08:55:35.779Z,6.60
2019-02-16T09:01:01.250Z,7.40
2019-02-16T09:06:26.576Z,8.10
2019-02-16T09:12:05.838Z,8.90
2019-02-16T09:17:33.247Z,9.40
2019-02-16T09:23:07.361Z,9.90
2019-02-16T09:28:21.999Z,10.50
2019-02-16T09:33:47.198Z,10.70
2019-02-16T09:39:10.703Z,11.40
2019-02-16T09:44:34.440Z,11.00
2019-02-16T09:49:58.260Z,11.60
2019-02-16T09:55:39.835Z,12.30
2019-02-16T10:01:10.950Z,12.20
2019-02-16T10:06:37.603Z,12.60
2019-02-16T10:11:57.804Z,12.90
2019-02-16T10:17:34.927Z,13.40
2019-02-16T10:23:18.296Z,14.30
2019-02-16T10:28:39.721Z,14.10
2019-02-16T10:33:55.659Z,14.30
2019-02-16T10:39:36.474Z,14.30
2019-02-16T10:44:59.746Z,13.80
2019-02-16T10:50:21.715Z,14.20
2019-02-16T10:55:45.313Z,14.70
2019-02-16T11:01:13.316Z,14.80
2019-02-16T11:06:41.588Z,15.20
2019-02-16T11:12:21.557Z,14.80
2019-02-16T11:17:45.252Z,14.60
2019-02-16T11:22:58.441Z,14.90
2019-02-16T11:28:27.135Z,14.70
2019-02-16T11:34:01.096Z,15.50
2019-02-16T11:39:26.447Z,15.50
2019-02-16T11:45:00.742Z,15.20
2019-02-16T11:50:24.538Z,14.70
2019-02-16T11:55:58.457Z,15.00
2019-02-16T12:01:24.129Z,15.20
2019-02-16T12:06:43.511Z,15.30
2019-02-16T12:12:14.578Z,15.70
2019-02-16T12:17:38.643Z,15.60
2019-02-16T12:22:55.454Z,15.80
2019-02-16T12:28:23.870Z,15.40
2019-02-16T12:33:41.711Z,15.30
2019-02-16T12:39:04.851Z,15.50
2019-02-16T12:44:32.862Z,15.20
2019-02-16T12:50:04.148Z,15.60
2019-02-16T12:55:38.446Z,15.60
2019-02-16T13:01:02.097Z,15.50
2019-02-16T13:06:26.034Z,15.50
2019-02-16T13:11:51.339Z,15.70
2019-02-16T13:17:15.534Z,15.50
2019-02-16T13:22:43.623Z,15.60
2019-02-16T13:28:07.090Z,15.60
2019-02-16T13:33:23.228Z,15.80
2019-02-16T13:38:39.668Z,16.00
2019-02-16T13:44:04.863Z,15.80
2019-02-16T13:49:22.550Z,15.70
2019-02-16T13:54:40.627Z,15.60
2019-02-16T14:00:04.100Z,15.70
2019-02-16T14:05:16.779Z,15.80
2019-02-16T14:10:31.859Z,15.80
2019-02-16T14:15:52.211Z,16.00
2019-02-16T14:20:58.555Z,15.90
2019-02-16T14:26:05.433Z,15.80
2019-02-16T14:31:12.412Z,15.80
2019-02-16T14:36:19.426Z,15.80
2019-02-16T14:41:25.793Z,15.80
2019-02-16T14:46:32.116Z,15.80
2019-02-16T14:51:38.327Z,15.50
2019-02-16T14:56:44.563Z,15.50
2019-02-16T15:01:50.801Z,15.50
2019-02-16T15:06:58.173Z,15.50
2019-02-16T15:12:05.395Z,15.50
2019-02-16T15:17:11.633Z,15.50
2019-02-16T15:22:17.951Z,15.50
2019-02-16T15:27:24.210Z,15.40
2019-02-16T15:32:30.429Z,15.30
2019-02-16T15:37:36.664Z,15.10
2019-02-16T15:42:42.873Z,15.00
2019-02-16T15:47:49.110Z,15.00
2019-02-16T15:52:55.422Z,14.90
2019-02-16T15:58:01.745Z,14.80
2019-02-16T16:03:08.416Z,14.70
2019-02-16T16:08:33.633Z,14.60
2019-02-16T16:13:57.444Z,14.50
2019-02-16T16:19:34.418Z,14.30
2019-02-16T16:25:02.630Z,14.20
2019-02-16T16:30:28.047Z,14.00
2019-02-16T16:35:40.459Z,13.80
2019-02-16T16:40:53.818Z,13.70
2019-02-16T16:46:37.080Z,13.50
2019-02-16T16:52:01.532Z,13.10
2019-02-16T16:57:29.814Z,12.80
2019-02-16T17:02:53.123Z,12.50
2019-02-16T17:08:18.388Z,12.20
2019-02-16T17:13:40.089Z,12.00
2019-02-16T17:19:09.340Z,11.80
2019-02-16T17:24:27.864Z,11.70
2019-02-16T17:29:53.050Z,11.50
2019-02-16T17:35:15.091Z,11.20
2019-02-16T17:40:46.266Z,11.00
2019-02-16T17:46:14.233Z,11.00
2019-02-16T17:51:33.088Z,10.80
2019-02-16T17:57:16.541Z,10.70
2019-02-16T18:02:42.647Z,10.60
2019-02-16T18:08:17.091Z,10.40
2019-02-16T18:13:42.435Z,10.20
2019-02-16T18:19:03.002Z,10.10
2019-02-16T18:24:43.413Z,10.00
2019-02-16T18:30:17.464Z,9.90
2019-02-16T18:35:42.714Z,9.70
2019-02-16T18:41:00.449Z,9.60
2019-02-16T18:46:22.330Z,9.50
2019-02-16T18:51:37.931Z,9.30
2019-02-16T18:57:21.328Z,9.30
2019-02-16T19:03:04.547Z,9.10
2019-02-16T19:08:32.071Z,9.10
2019-02-16T19:13:46.590Z,9.00
2019-02-16T19:19:24.071Z,8.90
2019-02-16T19:24:37.233Z,8.80
2019-02-16T19:30:11.279Z,8.70
2019-02-16T19:35:36.506Z,8.60
2019-02-16T19:40:49.089Z,8.40
2019-02-16T19:46:05.873Z,8.20
2019-02-16T19:51:19.132Z,8.30
2019-02-16T19:56:36.239Z,8.30
2019-02-16T20:02:01.483Z,8.10
2019-02-16T20:07:32.800Z,8.00
2019-02-16T20:13:13.124Z,8.00
2019-02-16T20:18:47.435Z,7.90
2019-02-16T20:24:08.036Z,7.80
2019-02-16T20:29:36.899Z,7.70
2019-02-16T20:34:59.911Z,7.60
2019-02-16T20:40:19.711Z,7.50
2019-02-16T20:45:44.164Z,7.40
2019-02-16T20:51:07.884Z,7.40
2019-02-16T20:56:35.807Z,7.40
2019-02-16T21:01:59.468Z,7.20
2019-02-16T21:07:16.769Z,7.10
2019-02-16T21:12:40.454Z,7.10
2019-02-16T21:18:20.522Z,7.00
2019-02-16T21:23:52.341Z,7.00
2019-02-16T21:29:13.610Z,7.00
2019-02-16T21:34:30.826Z,6.80
2019-02-16T21:39:42.741Z,6.70
2019-02-16T21:45:08.181Z,6.70
2019-02-16T21:50:42.238Z,6.60
2019-02-16T21:56:08.927Z,6.60
2019-02-16T22:01:46.395Z,6.50
2019-02-16T22:07:29.928Z,6.30
2019-02-16T22:12:54.032Z,6.30
2019-02-16T22:18:00.312Z,6.30
2019-02-16T22:23:07.589Z,6.40
2019-02-16T22:28:18.689Z,6.30
2019-02-16T22:33:21.823Z,6.30
2019-02-16T22:38:28.032Z,6.30
2019-02-16T22:43:34.298Z,6.00
2019-02-16T22:48:40.593Z,6.00
2019-02-16T22:53:46.921Z,6.00
2019-02-16T22:58:53.227Z,5.90
2019-02-16T23:03:59.441Z,5.80
2019-02-16T23:09:11.810Z,5.70
2019-02-16T23:14:18.255Z,5.70
2019-02-16T23:19:24.519Z,5.70
2019-02-16T23:24:30.766Z,5.70
2019-02-16T23:29:37.093Z,5.60
2019-02-16T23:34:43.332Z,5.50
2019-02-16T23:39:49.654Z,5.50
2019-02-16T23:44:55.927Z,5.50
2019-02-16T23:50:02.236Z,5.40
2019-02-16T23:55:08.876Z,5.30
